sensor_id;sensor_type;location;lat;lon;timestamp;pressure;altitude;pressure_sealevel;temperature;humidity
41947;BME280;27638;42.184;24.848;2023-03-31T00:00:45;99962.66;;;12.16;41.93
41947;BME280;27638;42.184;24.848;2023-03-31T00:03:14;99957.00;;;12.19;41.01
41947;BME280;27638;42.184;24.848;2023-03-31T00:05:53;99965.13;;;12.26;41.33
41947;BME280;27638;42.184;24.848;2023-03-31T00:08:19;99963.97;;;12.28;40.88
41947;BME280;27638;42.184;24.848;2023-03-31T00:10:46;99953.84;;;12.24;41.42
41947;BME280;27638;42.184;24.848;2023-03-31T00:13:12;99968.78;;;12.33;40.70
41947;BME280;27638;42.184;24.848;2023-03-31T00:15:38;99963.78;;;12.38;41.38
41947;BME280;27638;42.184;24.848;2023-03-31T00:18:04;99964.28;;;12.41;41.26
41947;BME280;27638;42.184;24.848;2023-03-31T00:20:29;99959.47;;;12.45;42.19
41947;BME280;27638;42.184;24.848;2023-03-31T00:22:58;99949.84;;;12.44;43.77
41947;BME280;27638;42.184;24.848;2023-03-31T00:25:26;99953.81;;;12.40;42.78
41947;BME280;27638;42.184;24.848;2023-03-31T00:27:51;99949.34;;;12.40;43.16
41947;BME280;27638;42.184;24.848;2023-03-31T00:30:17;99950.38;;;12.23;46.16
41947;BME280;27638;42.184;24.848;2023-03-31T00:32:43;99949.84;;;12.28;47.17
41947;BME280;27638;42.184;24.848;2023-03-31T00:35:09;99942.88;;;12.27;46.35
41947;BME280;27638;42.184;24.848;2023-03-31T00:37:34;99937.75;;;12.25;44.49
41947;BME280;27638;42.184;24.848;2023-03-31T00:40:00;99940.59;;;12.07;46.28
41947;BME280;27638;42.184;24.848;2023-03-31T00:42:26;99931.28;;;12.11;45.59
41947;BME280;27638;42.184;24.848;2023-03-31T00:47:37;99933.44;;;12.16;44.90
41947;BME280;27638;42.184;24.848;2023-03-31T00:50:02;99928.78;;;12.18;45.10
41947;BME280;27638;42.184;24.848;2023-03-31T00:52:33;99933.94;;;12.11;44.62
41947;BME280;27638;42.184;24.848;2023-03-31T00:55:08;99925.00;;;12.12;44.09
41947;BME280;27638;42.184;24.848;2023-03-31T00:57:37;99920.34;;;12.06;44.78
41947;BME280;27638;42.184;24.848;2023-03-31T01:00:10;99928.16;;;12.08;44.80
41947;BME280;27638;42.184;24.848;2023-03-31T01:02:40;99915.53;;;12.10;45.03
41947;BME280;27638;42.184;24.848;2023-03-31T01:05:17;99916.88;;;12.06;45.85
41947;BME280;27638;42.184;24.848;2023-03-31T01:07:47;99917.53;;;11.92;46.61
41947;BME280;27638;42.184;24.848;2023-03-31T01:10:13;99926.34;;;11.92;45.64
41947;BME280;27638;42.184;24.848;2023-03-31T01:12:41;99923.19;;;11.89;46.58
41947;BME280;27638;42.184;24.848;2023-03-31T01:15:08;99923.00;;;11.90;47.58
41947;BME280;27638;42.184;24.848;2023-03-31T01:17:35;99920.47;;;11.48;47.77
41947;BME280;27638;42.184;24.848;2023-03-31T01:25:44;99920.97;;;11.01;47.27
41947;BME280;27638;42.184;24.848;2023-03-31T01:47:59;99909.16;;;10.79;45.85
41947;BME280;27638;42.184;24.848;2023-03-31T01:50:46;99898.91;;;10.84;45.26
41947;BME280;27638;42.184;24.848;2023-03-31T01:56:17;99894.50;;;11.01;45.19
41947;BME280;27638;42.184;24.848;2023-03-31T02:02:12;99893.63;;;10.93;46.55
41947;BME280;27638;42.184;24.848;2023-03-31T02:04:45;99886.13;;;10.80;47.68
41947;BME280;27638;42.184;24.848;2023-03-31T02:07:16;99891.78;;;10.85;48.42
41947;BME280;27638;42.184;24.848;2023-03-31T02:09:48;99892.31;;;10.97;47.66
41947;BME280;27638;42.184;24.848;2023-03-31T02:12:16;99890.97;;;10.93;47.53
41947;BME280;27638;42.184;24.848;2023-03-31T02:14:45;99889.78;;;10.79;47.91
41947;BME280;27638;42.184;24.848;2023-03-31T02:17:17;99888.56;;;10.65;48.79
41947;BME280;27638;42.184;24.848;2023-03-31T02:19:48;99885.44;;;10.70;49.54
41947;BME280;27638;42.184;24.848;2023-03-31T02:22:16;99874.53;;;10.73;49.35
41947;BME280;27638;42.184;24.848;2023-03-31T02:24:45;99875.22;;;10.83;49.69
41947;BME280;27638;42.184;24.848;2023-03-31T02:29:40;99876.88;;;10.84;49.59
41947;BME280;27638;42.184;24.848;2023-03-31T02:32:28;99878.03;;;10.81;50.03
41947;BME280;27638;42.184;24.848;2023-03-31T02:34:57;99878.34;;;10.78;50.61
41947;BME280;27638;42.184;24.848;2023-03-31T02:37:23;99881.84;;;10.79;50.13
41947;BME280;27638;42.184;24.848;2023-03-31T02:39:51;99874.88;;;10.78;50.19
41947;BME280;27638;42.184;24.848;2023-03-31T02:42:18;99877.53;;;10.78;50.14
41947;BME280;27638;42.184;24.848;2023-03-31T02:44:44;99885.94;;;10.73;50.23
41947;BME280;27638;42.184;24.848;2023-03-31T02:47:12;99890.56;;;10.71;50.27
41947;BME280;27638;42.184;24.848;2023-03-31T02:49:42;99889.41;;;10.66;50.72
41947;BME280;27638;42.184;24.848;2023-03-31T02:55:16;99891.00;;;10.59;51.13
41947;BME280;27638;42.184;24.848;2023-03-31T03:03:10;99897.13;;;10.59;51.33
41947;BME280;27638;42.184;24.848;2023-03-31T03:13:50;99886.63;;;10.75;50.37
41947;BME280;27638;42.184;24.848;2023-03-31T03:18:59;99898.38;;;10.81;49.53
41947;BME280;27638;42.184;24.848;2023-03-31T03:21:25;99913.28;;;10.82;49.92
41947;BME280;27638;42.184;24.848;2023-03-31T03:23:50;99916.78;;;10.82;49.74
41947;BME280;27638;42.184;24.848;2023-03-31T03:26:17;99908.19;;;10.88;49.21
41947;BME280;27638;42.184;24.848;2023-03-31T03:28:46;99909.19;;;10.87;50.14
41947;BME280;27638;42.184;24.848;2023-03-31T03:31:12;99905.19;;;10.83;49.96
41947;BME280;27638;42.184;24.848;2023-03-31T03:33:37;99905.69;;;10.87;49.75
41947;BME280;27638;42.184;24.848;2023-03-31T03:36:03;99913.66;;;10.87;49.77
41947;BME280;27638;42.184;24.848;2023-03-31T03:38:29;99917.97;;;10.88;49.34
41947;BME280;27638;42.184;24.848;2023-03-31T03:40:55;99921.72;;;10.77;49.66
41947;BME280;27638;42.184;24.848;2023-03-31T03:43:20;99924.50;;;10.68;49.62
41947;BME280;27638;42.184;24.848;2023-03-31T03:45:49;99913.75;;;10.69;49.41
41947;BME280;27638;42.184;24.848;2023-03-31T03:48:15;99915.03;;;10.65;49.87
41947;BME280;27638;42.184;24.848;2023-03-31T03:50:41;99911.75;;;10.71;49.79
41947;BME280;27638;42.184;24.848;2023-03-31T03:53:07;99908.78;;;10.74;49.22
41947;BME280;27638;42.184;24.848;2023-03-31T03:55:33;99911.09;;;10.69;49.69
41947;BME280;27638;42.184;24.848;2023-03-31T03:57:58;99910.63;;;10.74;49.83
41947;BME280;27638;42.184;24.848;2023-03-31T04:00:24;99912.13;;;10.76;49.47
41947;BME280;27638;42.184;24.848;2023-03-31T04:02:49;99911.59;;;10.73;49.31
41947;BME280;27638;42.184;24.848;2023-03-31T04:05:15;99911.97;;;10.78;49.53
41947;BME280;27638;42.184;24.848;2023-03-31T04:07:41;99911.81;;;10.87;49.01
41947;BME280;27638;42.184;24.848;2023-03-31T04:10:07;99904.34;;;10.75;49.20
41947;BME280;27638;42.184;24.848;2023-03-31T04:12:34;99905.41;;;10.56;49.23
41947;BME280;27638;42.184;24.848;2023-03-31T04:14:59;99903.19;;;10.43;49.10
41947;BME280;27638;42.184;24.848;2023-03-31T04:17:25;99897.88;;;10.43;48.79
41947;BME280;27638;42.184;24.848;2023-03-31T04:19:58;99887.75;;;10.39;49.14
41947;BME280;27638;42.184;24.848;2023-03-31T04:22:29;99885.31;;;10.45;49.24
41947;BME280;27638;42.184;24.848;2023-03-31T04:24:59;99885.84;;;10.49;48.62
41947;BME280;27638;42.184;24.848;2023-03-31T04:27:25;99885.22;;;10.55;48.36
41947;BME280;27638;42.184;24.848;2023-03-31T04:29:53;99880.25;;;10.60;48.36
41947;BME280;27638;42.184;24.848;2023-03-31T04:32:20;99876.97;;;10.66;47.67
41947;BME280;27638;42.184;24.848;2023-03-31T04:34:47;99879.78;;;10.65;48.12
41947;BME280;27638;42.184;24.848;2023-03-31T04:37:15;99882.44;;;10.65;48.64
41947;BME280;27638;42.184;24.848;2023-03-31T04:39:40;99873.34;;;10.67;48.56
41947;BME280;27638;42.184;24.848;2023-03-31T04:42:06;99871.41;;;10.77;48.04
41947;BME280;27638;42.184;24.848;2023-03-31T04:44:31;99880.50;;;10.75;48.36
41947;BME280;27638;42.184;24.848;2023-03-31T04:46:57;99880.47;;;10.67;48.80
41947;BME280;27638;42.184;24.848;2023-03-31T04:49:23;99889.91;;;10.69;48.45
41947;BME280;27638;42.184;24.848;2023-03-31T04:51:49;99893.19;;;10.63;49.38
41947;BME280;27638;42.184;24.848;2023-03-31T04:54:15;99892.06;;;10.74;48.86
41947;BME280;27638;42.184;24.848;2023-03-31T04:56:40;99895.91;;;10.79;49.31
41947;BME280;27638;42.184;24.848;2023-03-31T04:59:06;99887.44;;;10.76;49.08
41947;BME280;27638;42.184;24.848;2023-03-31T05:01:32;99881.00;;;10.78;49.49
41947;BME280;27638;42.184;24.848;2023-03-31T05:04:00;99870.28;;;10.88;49.03
41947;BME280;27638;42.184;24.848;2023-03-31T05:06:26;99864.81;;;10.90;48.56
41947;BME280;27638;42.184;24.848;2023-03-31T05:08:51;99853.59;;;11.04;48.03
41947;BME280;27638;42.184;24.848;2023-03-31T05:11:17;99853.13;;;11.16;48.03
41947;BME280;27638;42.184;24.848;2023-03-31T05:13:42;99850.31;;;11.18;48.02
41947;BME280;27638;42.184;24.848;2023-03-31T05:16:10;99845.19;;;11.25;48.45
41947;BME280;27638;42.184;24.848;2023-03-31T05:18:38;99837.56;;;11.30;48.24
41947;BME280;27638;42.184;24.848;2023-03-31T05:21:14;99822.81;;;11.35;47.53
41947;BME280;27638;42.184;24.848;2023-03-31T05:23:41;99837.25;;;11.41;47.84
41947;BME280;27638;42.184;24.848;2023-03-31T05:26:07;99831.47;;;11.45;47.95
41947;BME280;27638;42.184;24.848;2023-03-31T05:28:33;99822.53;;;11.46;48.30
41947;BME280;27638;42.184;24.848;2023-03-31T05:31:01;99833.97;;;11.47;47.39
41947;BME280;27638;42.184;24.848;2023-03-31T05:33:27;99830.97;;;11.50;47.66
41947;BME280;27638;42.184;24.848;2023-03-31T05:35:53;99830.47;;;11.55;46.39
41947;BME280;27638;42.184;24.848;2023-03-31T05:38:18;99834.63;;;11.57;47.20
41947;BME280;27638;42.184;24.848;2023-03-31T05:40:44;99821.53;;;11.56;47.07
41947;BME280;27638;42.184;24.848;2023-03-31T05:43:09;99821.53;;;11.56;46.03
41947;BME280;27638;42.184;24.848;2023-03-31T05:45:34;99820.88;;;11.54;45.83
41947;BME280;27638;42.184;24.848;2023-03-31T05:48:00;99816.56;;;11.61;45.67
41947;BME280;27638;42.184;24.848;2023-03-31T05:50:26;99803.44;;;11.67;44.92
41947;BME280;27638;42.184;24.848;2023-03-31T05:52:51;99805.28;;;11.67;43.69
41947;BME280;27638;42.184;24.848;2023-03-31T05:55:17;99802.28;;;11.62;43.70
41947;BME280;27638;42.184;24.848;2023-03-31T05:57:43;99808.91;;;11.66;43.15
41947;BME280;27638;42.184;24.848;2023-03-31T06:00:08;99805.78;;;11.46;44.00
41947;BME280;27638;42.184;24.848;2023-03-31T06:02:35;99805.28;;;11.50;45.11
41947;BME280;27638;42.184;24.848;2023-03-31T06:05:01;99803.44;;;11.43;44.37
41947;BME280;27638;42.184;24.848;2023-03-31T06:07:29;99801.28;;;11.30;45.19
41947;BME280;27638;42.184;24.848;2023-03-31T06:10:01;99812.69;;;11.06;47.74
41947;BME280;27638;42.184;24.848;2023-03-31T06:12:27;99825.84;;;10.32;58.26
41947;BME280;27638;42.184;24.848;2023-03-31T06:14:52;99817.75;;;9.81;59.97
41947;BME280;27638;42.184;24.848;2023-03-31T06:17:18;99823.59;;;9.67;62.66
41947;BME280;27638;42.184;24.848;2023-03-31T06:19:43;99824.00;;;9.54;64.41
41947;BME280;27638;42.184;24.848;2023-03-31T06:22:09;99821.66;;;9.51;64.91
41947;BME280;27638;42.184;24.848;2023-03-31T06:24:34;99828.94;;;9.75;63.55
41947;BME280;27638;42.184;24.848;2023-03-31T06:27:00;99822.31;;;9.71;63.54
41947;BME280;27638;42.184;24.848;2023-03-31T06:29:26;99813.66;;;9.61;63.01
41947;BME280;27638;42.184;24.848;2023-03-31T06:31:52;99820.75;;;9.86;61.39
41947;BME280;27638;42.184;24.848;2023-03-31T06:34:17;99810.69;;;9.90;60.62
41947;BME280;27638;42.184;24.848;2023-03-31T06:36:43;99812.47;;;9.81;60.59
41947;BME280;27638;42.184;24.848;2023-03-31T06:39:08;99816.31;;;9.87;60.74
41947;BME280;27638;42.184;24.848;2023-03-31T06:41:34;99812.34;;;9.91;60.81
41947;BME280;27638;42.184;24.848;2023-03-31T06:43:59;99804.16;;;9.76;60.86
41947;BME280;27638;42.184;24.848;2023-03-31T06:46:25;99803.75;;;9.89;58.69
41947;BME280;27638;42.184;24.848;2023-03-31T06:48:50;99804.47;;;9.99;57.97
41947;BME280;27638;42.184;24.848;2023-03-31T06:51:16;99797.72;;;9.79;57.87
41947;BME280;27638;42.184;24.848;2023-03-31T06:53:42;99797.91;;;9.77;58.79
41947;BME280;27638;42.184;24.848;2023-03-31T06:56:07;99798.47;;;9.89;58.14
41947;BME280;27638;42.184;24.848;2023-03-31T06:58:32;99783.38;;;9.81;57.11
41947;BME280;27638;42.184;24.848;2023-03-31T07:01:01;99794.13;;;10.14;57.55
41947;BME280;27638;42.184;24.848;2023-03-31T07:03:27;99793.59;;;10.36;58.65
41947;BME280;27638;42.184;24.848;2023-03-31T07:05:54;99780.63;;;10.59;56.72
41947;BME280;27638;42.184;24.848;2023-03-31T07:08:20;99780.44;;;10.52;55.14
41947;BME280;27638;42.184;24.848;2023-03-31T07:10:47;99798.16;;;10.52;55.61
41947;BME280;27638;42.184;24.848;2023-03-31T07:13:16;99799.66;;;10.54;56.97
41947;BME280;27638;42.184;24.848;2023-03-31T07:15:43;99785.97;;;10.67;54.87
41947;BME280;27638;42.184;24.848;2023-03-31T07:18:11;99786.94;;;10.66;57.17
41947;BME280;27638;42.184;24.848;2023-03-31T07:20:36;99787.28;;;10.71;56.21
41947;BME280;27638;42.184;24.848;2023-03-31T07:23:04;99784.53;;;11.05;54.81
41947;BME280;27638;42.184;24.848;2023-03-31T07:25:30;99786.69;;;11.34;55.95
41947;BME280;27638;42.184;24.848;2023-03-31T07:27:55;99785.53;;;11.69;53.90
41947;BME280;27638;42.184;24.848;2023-03-31T07:30:21;99788.00;;;11.95;52.25
41947;BME280;27638;42.184;24.848;2023-03-31T07:32:48;99777.03;;;12.06;50.15
41947;BME280;27638;42.184;24.848;2023-03-31T07:35:14;99786.03;;;11.73;49.80
41947;BME280;27638;42.184;24.848;2023-03-31T07:37:42;99770.72;;;12.07;49.18
41947;BME280;27638;42.184;24.848;2023-03-31T07:40:10;99771.06;;;12.04;49.80
41947;BME280;27638;42.184;24.848;2023-03-31T07:42:36;99765.16;;;11.70;50.43
41947;BME280;27638;42.184;24.848;2023-03-31T07:45:03;99759.28;;;12.07;49.65
41947;BME280;27638;42.184;24.848;2023-03-31T07:47:32;99757.50;;;12.38;47.94
41947;BME280;27638;42.184;24.848;2023-03-31T07:49:57;99760.56;;;12.58;47.35
41947;BME280;27638;42.184;24.848;2023-03-31T07:52:23;99770.41;;;13.03;47.32
41947;BME280;27638;42.184;24.848;2023-03-31T07:54:49;99770.91;;;13.53;44.37
41947;BME280;27638;42.184;24.848;2023-03-31T07:57:15;99762.97;;;13.97;43.57
41947;BME280;27638;42.184;24.848;2023-03-31T07:59:44;99757.47;;;13.98;42.82
41947;BME280;27638;42.184;24.848;2023-03-31T08:02:13;99754.03;;;14.49;41.94
41947;BME280;27638;42.184;24.848;2023-03-31T08:04:39;99747.84;;;14.78;41.43
41947;BME280;27638;42.184;24.848;2023-03-31T08:07:10;99742.25;;;15.15;40.73
41947;BME280;27638;42.184;24.848;2023-03-31T08:09:36;99743.13;;;15.22;40.83
41947;BME280;27638;42.184;24.848;2023-03-31T08:12:03;99729.72;;;15.37;40.10
41947;BME280;27638;42.184;24.848;2023-03-31T08:14:29;99733.75;;;15.26;39.75
41947;BME280;27638;42.184;24.848;2023-03-31T08:16:54;99730.25;;;15.05;40.75
41947;BME280;27638;42.184;24.848;2023-03-31T08:19:22;99716.69;;;14.99;41.82
41947;BME280;27638;42.184;24.848;2023-03-31T08:21:48;99704.69;;;15.38;41.74
41947;BME280;27638;42.184;24.848;2023-03-31T08:24:13;99695.28;;;15.42;41.49
41947;BME280;27638;42.184;24.848;2023-03-31T08:26:40;99693.50;;;15.00;41.68
41947;BME280;27638;42.184;24.848;2023-03-31T08:29:05;99690.31;;;15.11;41.96
41947;BME280;27638;42.184;24.848;2023-03-31T08:31:31;99680.63;;;15.04;42.30
41947;BME280;27638;42.184;24.848;2023-03-31T08:33:56;99673.84;;;15.29;42.17
41947;BME280;27638;42.184;24.848;2023-03-31T08:36:22;99665.25;;;15.06;42.25
41947;BME280;27638;42.184;24.848;2023-03-31T08:38:48;99670.78;;;15.32;42.21
41947;BME280;27638;42.184;24.848;2023-03-31T08:43:54;99666.66;;;15.85;41.21
41947;BME280;27638;42.184;24.848;2023-03-31T08:46:20;99659.56;;;16.12;41.28
41947;BME280;27638;42.184;24.848;2023-03-31T08:48:53;99651.53;;;16.06;40.72
41947;BME280;27638;42.184;24.848;2023-03-31T08:53:50;99649.97;;;16.24;41.86
41947;BME280;27638;42.184;24.848;2023-03-31T08:56:21;99642.09;;;16.71;41.39
41947;BME280;27638;42.184;24.848;2023-03-31T08:58:48;99648.28;;;16.91;41.85
41947;BME280;27638;42.184;24.848;2023-03-31T09:06:48;99607.69;;;17.40;39.16
41947;BME280;27638;42.184;24.848;2023-03-31T09:12:09;99595.50;;;17.51;39.10
41947;BME280;27638;42.184;24.848;2023-03-31T09:14:37;99578.81;;;17.75;39.57
41947;BME280;27638;42.184;24.848;2023-03-31T09:17:24;99580.38;;;17.90;38.92
41947;BME280;27638;42.184;24.848;2023-03-31T09:20:04;99571.50;;;17.96;38.89
41947;BME280;27638;42.184;24.848;2023-03-31T09:22:37;99573.06;;;18.10;38.76
41947;BME280;27638;42.184;24.848;2023-03-31T09:25:11;99572.56;;;18.26;38.06
41947;BME280;27638;42.184;24.848;2023-03-31T09:27:40;99568.19;;;18.32;39.29
41947;BME280;27638;42.184;24.848;2023-03-31T09:30:24;99561.69;;;18.46;41.08
41947;BME280;27638;42.184;24.848;2023-03-31T09:33:50;99551.97;;;18.51;38.25
41947;BME280;27638;42.184;24.848;2023-03-31T09:35:52;99541.38;;;18.63;39.30
41947;BME280;27638;42.184;24.848;2023-03-31T09:38:18;99549.97;;;18.72;38.77
41947;BME280;27638;42.184;24.848;2023-03-31T09:40:44;99542.56;;;18.74;39.33
41947;BME280;27638;42.184;24.848;2023-03-31T09:43:25;99531.03;;;18.67;39.64
41947;BME280;27638;42.184;24.848;2023-03-31T09:45:51;99521.72;;;18.69;38.80
41947;BME280;27638;42.184;24.848;2023-03-31T09:48:20;99511.22;;;18.68;38.62
41947;BME280;27638;42.184;24.848;2023-03-31T09:51:12;99519.25;;;18.74;39.71
41947;BME280;27638;42.184;24.848;2023-03-31T09:53:44;99519.53;;;18.60;39.44
41947;BME280;27638;42.184;24.848;2023-03-31T09:56:11;99513.00;;;18.49;40.28
41947;BME280;27638;42.184;24.848;2023-03-31T09:58:43;99509.34;;;18.43;40.14
41947;BME280;27638;42.184;24.848;2023-03-31T10:01:10;99506.88;;;18.42;40.88
41947;BME280;27638;42.184;24.848;2023-03-31T10:03:53;99506.06;;;18.41;40.00
41947;BME280;27638;42.184;24.848;2023-03-31T10:06:23;99498.63;;;18.43;39.97
41947;BME280;27638;42.184;24.848;2023-03-31T10:09:01;99492.44;;;18.43;39.49
41947;BME280;27638;42.184;24.848;2023-03-31T10:11:27;99490.69;;;18.55;40.88
41947;BME280;27638;42.184;24.848;2023-03-31T10:16:33;99473.88;;;18.73;38.94
41947;BME280;27638;42.184;24.848;2023-03-31T10:19:25;99470.91;;;18.81;39.38
41947;BME280;27638;42.184;24.848;2023-03-31T10:24:23;99469.63;;;18.84;39.64
41947;BME280;27638;42.184;24.848;2023-03-31T10:26:52;99464.50;;;18.82;39.40
41947;BME280;27638;42.184;24.848;2023-03-31T10:29:22;99466.81;;;18.97;41.20
41947;BME280;27638;42.184;24.848;2023-03-31T10:31:50;99456.38;;;19.07;40.34
41947;BME280;27638;42.184;24.848;2023-03-31T10:34:16;99448.91;;;19.09;39.73
41947;BME280;27638;42.184;24.848;2023-03-31T10:36:47;99449.44;;;19.18;40.40
41947;BME280;27638;42.184;24.848;2023-03-31T10:39:15;99443.72;;;19.44;40.47
41947;BME280;27638;42.184;24.848;2023-03-31T10:41:41;99431.25;;;19.50;38.66
41947;BME280;27638;42.184;24.848;2023-03-31T10:44:33;99429.13;;;19.40;37.97
41947;BME280;27638;42.184;24.848;2023-03-31T10:47:20;99424.44;;;19.35;38.38
41947;BME280;27638;42.184;24.848;2023-03-31T10:49:55;99427.16;;;19.47;39.47
41947;BME280;27638;42.184;24.848;2023-03-31T10:52:23;99424.47;;;19.65;38.90
41947;BME280;27638;42.184;24.848;2023-03-31T10:54:58;99422.50;;;19.72;39.32
41947;BME280;27638;42.184;24.848;2023-03-31T10:57:40;99418.94;;;19.90;37.51
41947;BME280;27638;42.184;24.848;2023-03-31T11:13:56;99374.56;;;19.99;37.82
41947;BME280;27638;42.184;24.848;2023-03-31T11:29:40;99336.59;;;20.19;35.81
41947;BME280;27638;42.184;24.848;2023-03-31T11:43:02;99310.53;;;20.20;35.09
41947;BME280;27638;42.184;24.848;2023-03-31T11:45:46;99308.09;;;20.18;35.59
41947;BME280;27638;42.184;24.848;2023-03-31T11:48:23;99310.19;;;20.16;36.80
41947;BME280;27638;42.184;24.848;2023-03-31T11:50:53;99298.75;;;20.09;36.65
41947;BME280;27638;42.184;24.848;2023-03-31T11:53:29;99297.44;;;20.12;35.35
41947;BME280;27638;42.184;24.848;2023-03-31T11:55:58;99287.97;;;20.21;35.49
41947;BME280;27638;42.184;24.848;2023-03-31T12:06:31;99276.03;;;20.52;36.30
41947;BME280;27638;42.184;24.848;2023-03-31T12:17:40;99262.13;;;20.43;33.54
41947;BME280;27638;42.184;24.848;2023-03-31T12:20:15;99252.78;;;20.46;34.55
41947;BME280;27638;42.184;24.848;2023-03-31T12:22:47;99256.16;;;20.53;34.28
41947;BME280;27638;42.184;24.848;2023-03-31T12:25:14;99240.34;;;20.56;34.18
41947;BME280;27638;42.184;24.848;2023-03-31T12:27:42;99243.19;;;20.50;33.96
41947;BME280;27638;42.184;24.848;2023-03-31T12:30:28;99250.78;;;20.41;34.37
41947;BME280;27638;42.184;24.848;2023-03-31T12:33:05;99246.34;;;20.47;33.70
41947;BME280;27638;42.184;24.848;2023-03-31T12:35:46;99244.72;;;20.46;32.83
41947;BME280;27638;42.184;24.848;2023-03-31T12:38:24;99258.72;;;20.48;33.64
41947;BME280;27638;42.184;24.848;2023-03-31T12:41:17;99251.59;;;20.53;33.17
41947;BME280;27638;42.184;24.848;2023-03-31T12:44:03;99239.88;;;20.59;33.62
41947;BME280;27638;42.184;24.848;2023-03-31T12:49:31;99235.72;;;20.40;34.00
41947;BME280;27638;42.184;24.848;2023-03-31T12:52:07;99234.28;;;20.49;32.99
41947;BME280;27638;42.184;24.848;2023-03-31T12:57:21;99215.25;;;20.27;31.43
41947;BME280;27638;42.184;24.848;2023-03-31T13:00:20;99216.69;;;20.18;30.92
41947;BME280;27638;42.184;24.848;2023-03-31T13:02:47;99215.53;;;20.14;31.90
41947;BME280;27638;42.184;24.848;2023-03-31T13:08:06;99203.34;;;20.23;32.33
41947;BME280;27638;42.184;24.848;2023-03-31T13:10:49;99197.06;;;20.18;32.58
41947;BME280;27638;42.184;24.848;2023-03-31T13:13:16;99196.25;;;20.05;33.06
41947;BME280;27638;42.184;24.848;2023-03-31T13:15:55;99178.06;;;19.96;33.66
41947;BME280;27638;42.184;24.848;2023-03-31T13:18:22;99178.16;;;20.01;33.95
41947;BME280;27638;42.184;24.848;2023-03-31T13:21:02;99183.31;;;20.02;33.89
41947;BME280;27638;42.184;24.848;2023-03-31T13:23:32;99172.78;;;20.01;31.93
41947;BME280;27638;42.184;24.848;2023-03-31T13:25:59;99168.34;;;20.06;31.07
41947;BME280;27638;42.184;24.848;2023-03-31T13:28:39;99160.25;;;20.18;31.62
41947;BME280;27638;42.184;24.848;2023-03-31T13:31:11;99153.22;;;20.17;31.30
41947;BME280;27638;42.184;24.848;2023-03-31T13:41:33;99148.72;;;20.06;32.60
41947;BME280;27638;42.184;24.848;2023-03-31T13:44:26;99151.88;;;20.03;31.72
41947;BME280;27638;42.184;24.848;2023-03-31T13:47:18;99157.94;;;20.10;32.00
41947;BME280;27638;42.184;24.848;2023-03-31T13:49:50;99138.19;;;20.04;32.21
41947;BME280;27638;42.184;24.848;2023-03-31T13:52:36;99144.81;;;20.14;32.28
41947;BME280;27638;42.184;24.848;2023-03-31T13:58:07;99132.97;;;20.26;31.25
41947;BME280;27638;42.184;24.848;2023-03-31T14:06:33;99122.88;;;20.05;32.08
41947;BME280;27638;42.184;24.848;2023-03-31T14:09:07;99124.06;;;19.97;32.15
41947;BME280;27638;42.184;24.848;2023-03-31T14:11:33;99115.44;;;19.95;32.49
41947;BME280;27638;42.184;24.848;2023-03-31T14:14:00;99120.44;;;20.03;32.65
41947;BME280;27638;42.184;24.848;2023-03-31T14:16:27;99117.88;;;19.97;32.93
41947;BME280;27638;42.184;24.848;2023-03-31T14:19:05;99126.19;;;19.95;33.55
41947;BME280;27638;42.184;24.848;2023-03-31T14:21:50;99117.66;;;19.98;33.39
41947;BME280;27638;42.184;24.848;2023-03-31T14:24:41;99118.22;;;20.00;33.15
41947;BME280;27638;42.184;24.848;2023-03-31T14:27:06;99119.72;;;20.08;33.02
41947;BME280;27638;42.184;24.848;2023-03-31T14:29:49;99116.78;;;20.09;33.22
41947;BME280;27638;42.184;24.848;2023-03-31T14:32:34;99115.97;;;20.09;33.82
41947;BME280;27638;42.184;24.848;2023-03-31T14:35:26;99111.66;;;20.08;33.61
41947;BME280;27638;42.184;24.848;2023-03-31T14:37:54;99112.13;;;20.05;33.08
41947;BME280;27638;42.184;24.848;2023-03-31T14:40:21;99105.38;;;20.02;33.08
41947;BME280;27638;42.184;24.848;2023-03-31T14:42:47;99102.72;;;19.91;32.54
41947;BME280;27638;42.184;24.848;2023-03-31T14:45:20;99105.28;;;19.86;32.79
41947;BME280;27638;42.184;24.848;2023-03-31T14:48:11;99102.03;;;19.72;33.06
41947;BME280;27638;42.184;24.848;2023-03-31T14:50:42;99105.91;;;19.64;33.67
41947;BME280;27638;42.184;24.848;2023-03-31T14:53:21;99104.84;;;19.65;33.21
41947;BME280;27638;42.184;24.848;2023-03-31T14:55:47;99100.75;;;19.63;33.80
41947;BME280;27638;42.184;24.848;2023-03-31T14:58:23;99104.97;;;19.59;34.03
41947;BME280;27638;42.184;24.848;2023-03-31T15:00:51;99109.88;;;19.62;34.13
41947;BME280;27638;42.184;24.848;2023-03-31T15:03:17;99105.66;;;19.66;34.35
41947;BME280;27638;42.184;24.848;2023-03-31T15:05:43;99101.56;;;19.75;34.13
41947;BME280;27638;42.184;24.848;2023-03-31T15:08:13;99099.00;;;19.80;33.99
41947;BME280;27638;42.184;24.848;2023-03-31T15:10:42;99096.75;;;19.89;33.71
41947;BME280;27638;42.184;24.848;2023-03-31T15:13:15;99095.00;;;19.94;33.79
41947;BME280;27638;42.184;24.848;2023-03-31T15:15:43;99105.16;;;19.92;33.86
41947;BME280;27638;42.184;24.848;2023-03-31T15:18:15;99093.13;;;19.95;33.63
41947;BME280;27638;42.184;24.848;2023-03-31T15:20:41;99095.91;;;20.00;33.32
41947;BME280;27638;42.184;24.848;2023-03-31T15:23:25;99101.16;;;20.06;33.31
41947;BME280;27638;42.184;24.848;2023-03-31T15:26:01;99094.84;;;20.01;33.58
41947;BME280;27638;42.184;24.848;2023-03-31T15:28:32;99097.63;;;20.06;33.54
41947;BME280;27638;42.184;24.848;2023-03-31T15:31:00;99099.03;;;20.08;33.15
41947;BME280;27638;42.184;24.848;2023-03-31T15:33:34;99103.34;;;20.09;33.36
41947;BME280;27638;42.184;24.848;2023-03-31T15:36:01;99102.34;;;19.99;33.39
41947;BME280;27638;42.184;24.848;2023-03-31T15:38:28;99102.94;;;19.89;34.00